sensor_id;sensor_type;location;lat;lon;timestamp;temperature;humidity
51619;DHT22;38518;53.164;5.430;2022-09-17T00:00:15;12.50;79.50
51619;DHT22;38518;53.164;5.430;2022-09-17T00:02:41;12.50;75.40
51619;DHT22;38518;53.164;5.430;2022-09-17T00:05:10;12.50;96.10
51619;DHT22;38518;53.164;5.430;2022-09-17T00:07:36;12.50;99.90
51619;DHT22;38518;53.164;5.430;2022-09-17T00:10:02;12.50;99.90
51619;DHT22;38518;53.164;5.430;2022-09-17T00:12:28;12.40;99.90
51619;DHT22;38518;53.164;5.430;2022-09-17T00:14:55;12.40;99.90
51619;DHT22;38518;53.164;5.430;2022-09-17T00:17:20;12.40;99.90
51619;DHT22;38518;53.164;5.430;2022-09-17T00:19:46;12.40;99.90
51619;DHT22;38518;53.164;5.430;2022-09-17T00:22:11;12.40;99.90
51619;DHT22;38518;53.164;5.430;2022-09-17T00:24:37;12.30;99.90
51619;DHT22;38518;53.164;5.430;2022-09-17T00:27:03;12.30;99.90
51619;DHT22;38518;53.164;5.430;2022-09-17T00:29:28;12.20;99.90
51619;DHT22;38518;53.164;5.430;2022-09-17T00:31:54;12.20;99.90
51619;DHT22;38518;53.164;5.430;2022-09-17T00:34:19;12.20;99.90
51619;DHT22;38518;53.164;5.430;2022-09-17T00:36:45;12.10;99.90
51619;DHT22;38518;53.164;5.430;2022-09-17T00:39:11;12.10;99.90
51619;DHT22;38518;53.164;5.430;2022-09-17T00:41:37;12.10;99.90
51619;DHT22;38518;53.164;5.430;2022-09-17T00:46:47;12.20;99.90
51619;DHT22;38518;53.164;5.430;2022-09-17T00:51:47;12.20;99.90
51619;DHT22;38518;53.164;5.430;2022-09-17T00:54:14;12.10;99.90
51619;DHT22;38518;53.164;5.430;2022-09-17T00:56:40;12.10;99.90
51619;DHT22;38518;53.164;5.430;2022-09-17T00:59:06;12.10;99.90
51619;DHT22;38518;53.164;5.430;2022-09-17T01:01:35;12.10;99.60
51619;DHT22;38518;53.164;5.430;2022-09-17T01:04:04;12.20;87.10
51619;DHT22;38518;53.164;5.430;2022-09-17T01:06:31;12.20;91.70
51619;DHT22;38518;53.164;5.430;2022-09-17T01:09:08;12.20;93.20
51619;DHT22;38518;53.164;5.430;2022-09-17T01:19:41;12.40;99.90
51619;DHT22;38518;53.164;5.430;2022-09-17T01:22:21;12.20;99.90
51619;DHT22;38518;53.164;5.430;2022-09-17T01:35:36;11.60;99.90
51619;DHT22;38518;53.164;5.430;2022-09-17T01:45:51;11.70;99.90
51619;DHT22;38518;53.164;5.430;2022-09-17T01:48:24;11.70;99.90
51619;DHT22;38518;53.164;5.430;2022-09-17T01:53:22;11.90;99.90
51619;DHT22;38518;53.164;5.430;2022-09-17T01:55:50;12.00;99.90
51619;DHT22;38518;53.164;5.430;2022-09-17T01:58:20;12.10;99.90
51619;DHT22;38518;53.164;5.430;2022-09-17T02:00:49;12.40;99.90
51619;DHT22;38518;53.164;5.430;2022-09-17T02:03:17;12.30;98.30
51619;DHT22;38518;53.164;5.430;2022-09-17T02:05:47;12.40;99.90
51619;DHT22;38518;53.164;5.430;2022-09-17T02:08:23;12.30;99.90
51619;DHT22;38518;53.164;5.430;2022-09-17T02:13:24;12.20;99.90
51619;DHT22;38518;53.164;5.430;2022-09-17T02:15:56;12.20;99.90
51619;DHT22;38518;53.164;5.430;2022-09-17T02:18:26;12.20;99.90
51619;DHT22;38518;53.164;5.430;2022-09-17T02:21:07;12.20;92.10
51619;DHT22;38518;53.164;5.430;2022-09-17T02:23:36;12.20;65.10
51619;DHT22;38518;53.164;5.430;2022-09-17T02:26:07;12.30;64.50
51619;DHT22;38518;53.164;5.430;2022-09-17T02:30:58;12.30;80.00
51619;DHT22;38518;53.164;5.430;2022-09-17T02:33:24;12.10;60.20
51619;DHT22;38518;53.164;5.430;2022-09-17T02:35:50;12.40;13.80
51619;DHT22;38518;53.164;5.430;2022-09-17T02:38:25;12.40;6.70
51619;DHT22;38518;53.164;5.430;2022-09-17T02:41:04;12.80;16.90
51619;DHT22;38518;53.164;5.430;2022-09-17T02:43:41;12.50;30.40
51619;DHT22;38518;53.164;5.430;2022-09-17T02:46:16;12.50;91.40
51619;DHT22;38518;53.164;5.430;2022-09-17T03:01:13;12.10;75.20
51619;DHT22;38518;53.164;5.430;2022-09-17T03:03:42;12.10;61.40
51619;DHT22;38518;53.164;5.430;2022-09-17T03:06:09;12.10;81.40
51619;DHT22;38518;53.164;5.430;2022-09-17T03:08:36;12.10;79.40
51619;DHT22;38518;53.164;5.430;2022-09-17T03:11:04;12.10;88.60
51619;DHT22;38518;53.164;5.430;2022-09-17T03:13:30;12.10;71.40
51619;DHT22;38518;53.164;5.430;2022-09-17T03:15:56;12.00;75.20
51619;DHT22;38518;53.164;5.430;2022-09-17T03:18:22;11.90;98.00
51619;DHT22;38518;53.164;5.430;2022-09-17T03:20:48;11.80;99.90
51619;DHT22;38518;53.164;5.430;2022-09-17T03:23:13;11.70;91.00
51619;DHT22;38518;53.164;5.430;2022-09-17T03:25:39;11.70;91.20
51619;DHT22;38518;53.164;5.430;2022-09-17T03:28:05;11.60;99.90
51619;DHT22;38518;53.164;5.430;2022-09-17T03:30:30;11.60;99.90
51619;DHT22;38518;53.164;5.430;2022-09-17T03:32:56;11.50;99.90
51619;DHT22;38518;53.164;5.430;2022-09-17T03:35:22;11.50;99.90
51619;DHT22;38518;53.164;5.430;2022-09-17T03:37:47;11.50;99.90
51619;DHT22;38518;53.164;5.430;2022-09-17T03:40:13;11.60;99.90
51619;DHT22;38518;53.164;5.430;2022-09-17T03:42:39;11.60;73.50
51619;DHT22;38518;53.164;5.430;2022-09-17T03:45:04;11.60;84.90
51619;DHT22;38518;53.164;5.430;2022-09-17T03:47:30;11.60;90.30
51619;DHT22;38518;53.164;5.430;2022-09-17T03:49:56;11.60;92.80
51619;DHT22;38518;53.164;5.430;2022-09-17T03:52:22;11.60;95.60
51619;DHT22;38518;53.164;5.430;2022-09-17T03:54:47;11.70;77.30
51619;DHT22;38518;53.164;5.430;2022-09-17T03:57:13;11.60;61.90
51619;DHT22;38518;53.164;5.430;2022-09-17T03:59:39;11.60;13.90
51619;DHT22;38518;53.164;5.430;2022-09-17T04:02:04;11.60;27.50
51619;DHT22;38518;53.164;5.430;2022-09-17T04:04:31;11.60;41.40
51619;DHT22;38518;53.164;5.430;2022-09-17T04:06:56;11.60;40.40
51619;DHT22;38518;53.164;5.430;2022-09-17T04:09:22;11.60;49.10
51619;DHT22;38518;53.164;5.430;2022-09-17T04:11:48;11.70;57.60
51619;DHT22;38518;53.164;5.430;2022-09-17T04:14:13;11.80;56.90
51619;DHT22;38518;53.164;5.430;2022-09-17T04:16:39;11.90;62.60
51619;DHT22;38518;53.164;5.430;2022-09-17T04:19:05;11.90;62.20
51619;DHT22;38518;53.164;5.430;2022-09-17T04:21:30;12.00;29.00
51619;DHT22;38518;53.164;5.430;2022-09-17T04:23:56;12.10;50.80
51619;DHT22;38518;53.164;5.430;2022-09-17T04:26:22;12.10;63.80
51619;DHT22;38518;53.164;5.430;2022-09-17T04:28:47;12.20;39.40
51619;DHT22;38518;53.164;5.430;2022-09-17T04:31:13;12.10;23.40
51619;DHT22;38518;53.164;5.430;2022-09-17T04:33:38;12.10;23.10
51619;DHT22;38518;53.164;5.430;2022-09-17T04:36:04;12.00;42.90
51619;DHT22;38518;53.164;5.430;2022-09-17T04:38:30;12.00;36.00
51619;DHT22;38518;53.164;5.430;2022-09-17T04:40:55;11.90;38.20
51619;DHT22;38518;53.164;5.430;2022-09-17T04:43:21;11.90;56.80
51619;DHT22;38518;53.164;5.430;2022-09-17T04:45:47;12.00;75.90
51619;DHT22;38518;53.164;5.430;2022-09-17T04:48:13;11.90;95.00
51619;DHT22;38518;53.164;5.430;2022-09-17T04:50:39;12.10;99.90
51619;DHT22;38518;53.164;5.430;2022-09-17T04:53:04;12.10;80.30
51619;DHT22;38518;53.164;5.430;2022-09-17T04:55:30;12.10;69.80
51619;DHT22;38518;53.164;5.430;2022-09-17T04:57:56;12.20;91.60
51619;DHT22;38518;53.164;5.430;2022-09-17T05:00:22;12.20;90.60
51619;DHT22;38518;53.164;5.430;2022-09-17T05:02:49;12.20;90.00
51619;DHT22;38518;53.164;5.430;2022-09-17T05:05:15;12.20;92.30
51619;DHT22;38518;53.164;5.430;2022-09-17T05:07:41;12.20;86.10
51619;DHT22;38518;53.164;5.430;2022-09-17T05:10:07;12.10;78.70
51619;DHT22;38518;53.164;5.430;2022-09-17T05:12:34;12.00;82.60
51619;DHT22;38518;53.164;5.430;2022-09-17T05:14:59;12.00;89.20
51619;DHT22;38518;53.164;5.430;2022-09-17T05:17:25;11.90;98.10
51619;DHT22;38518;53.164;5.430;2022-09-17T05:19:51;11.90;98.10
51619;DHT22;38518;53.164;5.430;2022-09-17T05:22:19;11.80;72.70
51619;DHT22;38518;53.164;5.430;2022-09-17T05:24:45;11.90;46.90
51619;DHT22;38518;53.164;5.430;2022-09-17T05:27:11;11.80;61.00
51619;DHT22;38518;53.164;5.430;2022-09-17T05:29:36;11.90;64.40
51619;DHT22;38518;53.164;5.430;2022-09-17T05:32:02;12.00;65.30
51619;DHT22;38518;53.164;5.430;2022-09-17T05:34:28;12.00;74.00
51619;DHT22;38518;53.164;5.430;2022-09-17T05:36:54;12.00;63.70
51619;DHT22;38518;53.164;5.430;2022-09-17T05:39:19;12.10;79.80
51619;DHT22;38518;53.164;5.430;2022-09-17T05:41:47;12.10;99.90
51619;DHT22;38518;53.164;5.430;2022-09-17T05:44:13;12.00;99.90
51619;DHT22;38518;53.164;5.430;2022-09-17T05:46:38;11.90;99.90
51619;DHT22;38518;53.164;5.430;2022-09-17T05:49:04;11.80;99.90
51619;DHT22;38518;53.164;5.430;2022-09-17T05:51:29;11.80;99.90
51619;DHT22;38518;53.164;5.430;2022-09-17T05:53:56;11.80;99.90
51619;DHT22;38518;53.164;5.430;2022-09-17T05:56:21;11.80;99.90
51619;DHT22;38518;53.164;5.430;2022-09-17T05:58:48;11.60;99.90
51619;DHT22;38518;53.164;5.430;2022-09-17T06:01:13;11.50;99.90
51619;DHT22;38518;53.164;5.430;2022-09-17T06:03:41;11.40;99.90
51619;DHT22;38518;53.164;5.430;2022-09-17T06:06:06;11.30;99.90
51619;DHT22;38518;53.164;5.430;2022-09-17T06:08:32;11.40;99.90
51619;DHT22;38518;53.164;5.430;2022-09-17T06:11:02;11.50;99.90
51619;DHT22;38518;53.164;5.430;2022-09-17T06:13:28;11.60;99.90
51619;DHT22;38518;53.164;5.430;2022-09-17T06:15:53;11.60;99.90
51619;DHT22;38518;53.164;5.430;2022-09-17T06:18:19;11.70;99.90
51619;DHT22;38518;53.164;5.430;2022-09-17T06:20:54;11.70;99.90
51619;DHT22;38518;53.164;5.430;2022-09-17T06:23:20;11.80;99.90
51619;DHT22;38518;53.164;5.430;2022-09-17T06:25:53;12.00;99.90
51619;DHT22;38518;53.164;5.430;2022-09-17T06:28:20;12.10;99.90
51619;DHT22;38518;53.164;5.430;2022-09-17T06:30:45;12.20;99.70
51619;DHT22;38518;53.164;5.430;2022-09-17T06:33:11;11.50;83.90
51619;DHT22;38518;53.164;5.430;2022-09-17T06:35:36;12.00;84.80
51619;DHT22;38518;53.164;5.430;2022-09-17T06:38:05;12.00;88.80
51619;DHT22;38518;53.164;5.430;2022-09-17T06:40:31;11.90;91.20
51619;DHT22;38518;53.164;5.430;2022-09-17T06:42:57;11.90;99.90
51619;DHT22;38518;53.164;5.430;2022-09-17T06:45:24;11.90;99.90
51619;DHT22;38518;53.164;5.430;2022-09-17T06:47:49;11.90;99.90
51619;DHT22;38518;53.164;5.430;2022-09-17T06:50:15;11.80;99.90
51619;DHT22;38518;53.164;5.430;2022-09-17T06:52:51;11.80;99.90
51619;DHT22;38518;53.164;5.430;2022-09-17T06:55:17;11.80;99.90
51619;DHT22;38518;53.164;5.430;2022-09-17T06:57:43;11.80;99.90
51619;DHT22;38518;53.164;5.430;2022-09-17T07:00:09;11.90;99.90
51619;DHT22;38518;53.164;5.430;2022-09-17T07:02:35;12.00;99.90
51619;DHT22;38518;53.164;5.430;2022-09-17T07:05:01;11.90;99.90
51619;DHT22;38518;53.164;5.430;2022-09-17T07:07:27;11.70;99.90
51619;DHT22;38518;53.164;5.430;2022-09-17T07:09:53;11.30;99.90
51619;DHT22;38518;53.164;5.430;2022-09-17T07:12:19;11.20;99.90
51619;DHT22;38518;53.164;5.430;2022-09-17T07:14:44;11.20;99.90
51619;DHT22;38518;53.164;5.430;2022-09-17T07:17:12;11.70;99.90
51619;DHT22;38518;53.164;5.430;2022-09-17T07:19:38;11.40;99.90
51619;DHT22;38518;53.164;5.430;2022-09-17T07:22:03;11.90;99.90
51619;DHT22;38518;53.164;5.430;2022-09-17T07:24:29;12.60;99.90
51619;DHT22;38518;53.164;5.430;2022-09-17T07:26:54;13.30;99.90
51619;DHT22;38518;53.164;5.430;2022-09-17T07:29:20;13.60;99.90
51619;DHT22;38518;53.164;5.430;2022-09-17T07:31:47;13.90;94.80
51619;DHT22;38518;53.164;5.430;2022-09-17T07:34:13;14.30;80.00
51619;DHT22;38518;53.164;5.430;2022-09-17T07:36:39;14.30;59.90
51619;DHT22;38518;53.164;5.430;2022-09-17T07:39:05;14.00;68.30
51619;DHT22;38518;53.164;5.430;2022-09-17T07:41:30;13.70;72.40
51619;DHT22;38518;53.164;5.430;2022-09-17T07:43:56;13.30;91.20
51619;DHT22;38518;53.164;5.430;2022-09-17T07:46:28;13.10;99.90
51619;DHT22;38518;53.164;5.430;2022-09-17T07:48:54;12.80;99.90
51619;DHT22;38518;53.164;5.430;2022-09-17T07:51:21;12.50;99.90
51619;DHT22;38518;53.164;5.430;2022-09-17T07:53:49;12.00;99.90
51619;DHT22;38518;53.164;5.430;2022-09-17T07:56:15;11.70;99.90
51619;DHT22;38518;53.164;5.430;2022-09-17T07:58:41;11.60;99.90
51619;DHT22;38518;53.164;5.430;2022-09-17T08:01:07;11.60;1.00
51619;DHT22;38518;53.164;5.430;2022-09-17T08:03:34;11.70;1.00
51619;DHT22;38518;53.164;5.430;2022-09-17T08:06:02;11.80;1.00
51619;DHT22;38518;53.164;5.430;2022-09-17T08:08:29;12.00;1.00
51619;DHT22;38518;53.164;5.430;2022-09-17T08:10:58;12.10;99.90
51619;DHT22;38518;53.164;5.430;2022-09-17T08:13:23;12.20;99.90
51619;DHT22;38518;53.164;5.430;2022-09-17T08:15:49;12.20;99.90
51619;DHT22;38518;53.164;5.430;2022-09-17T08:18:15;12.10;99.90
51619;DHT22;38518;53.164;5.430;2022-09-17T08:20:41;11.90;99.90
51619;DHT22;38518;53.164;5.430;2022-09-17T08:23:07;11.70;99.90
51619;DHT22;38518;53.164;5.430;2022-09-17T08:25:33;11.60;99.90
51619;DHT22;38518;53.164;5.430;2022-09-17T08:27:58;12.20;99.90
51619;DHT22;38518;53.164;5.430;2022-09-17T08:30:24;11.60;99.90
51619;DHT22;38518;53.164;5.430;2022-09-17T08:32:50;10.40;99.90
51619;DHT22;38518;53.164;5.430;2022-09-17T08:35:15;11.90;99.90
51619;DHT22;38518;53.164;5.430;2022-09-17T08:37:41;12.20;99.90
51619;DHT22;38518;53.164;5.430;2022-09-17T08:40:11;12.80;99.90
51619;DHT22;38518;53.164;5.430;2022-09-17T08:42:40;13.00;99.90
51619;DHT22;38518;53.164;5.430;2022-09-17T08:47:39;13.40;99.90
51619;DHT22;38518;53.164;5.430;2022-09-17T08:50:12;14.00;99.90
51619;DHT22;38518;53.164;5.430;2022-09-17T09:00:45;14.30;99.90
51619;DHT22;38518;53.164;5.430;2022-09-17T10:47:53;17.60;4.30
51619;DHT22;38518;53.164;5.430;2022-09-17T10:50:20;18.00;1.00
51619;DHT22;38518;53.164;5.430;2022-09-17T10:52:53;17.60;1.00
51619;DHT22;38518;53.164;5.430;2022-09-17T11:00:21;17.40;1.00
51619;DHT22;38518;53.164;5.430;2022-09-17T11:10:50;15.50;13.90
51619;DHT22;38518;53.164;5.430;2022-09-17T11:15:47;16.10;16.10
51619;DHT22;38518;53.164;5.430;2022-09-17T11:39:20;19.90;1.00
51619;DHT22;38518;53.164;5.430;2022-09-17T11:41:47;18.70;1.00
51619;DHT22;38518;53.164;5.430;2022-09-17T11:44:16;18.00;1.00
51619;DHT22;38518;53.164;5.430;2022-09-17T11:46:46;17.60;1.00
51619;DHT22;38518;53.164;5.430;2022-09-17T11:49:28;17.10;1.00
51619;DHT22;38518;53.164;5.430;2022-09-17T11:51:55;16.30;1.00
51619;DHT22;38518;53.164;5.430;2022-09-17T11:54:46;15.60;1.00
51619;DHT22;38518;53.164;5.430;2022-09-17T11:57:18;15.20;14.40
51619;DHT22;38518;53.164;5.430;2022-09-17T12:00:04;14.90;23.60
51619;DHT22;38518;53.164;5.430;2022-09-17T12:04:59;17.10;1.00
51619;DHT22;38518;53.164;5.430;2022-09-17T12:12:41;19.90;1.00
51619;DHT22;38518;53.164;5.430;2022-09-17T12:15:19;20.50;1.00
51619;DHT22;38518;53.164;5.430;2022-09-17T12:17:48;20.80;1.00
51619;DHT22;38518;53.164;5.430;2022-09-17T12:22:45;19.90;1.00
51619;DHT22;38518;53.164;5.430;2022-09-17T12:25:12;18.60;1.00
51619;DHT22;38518;53.164;5.430;2022-09-17T12:41:05;17.30;1.00
51619;DHT22;38518;53.164;5.430;2022-09-17T12:43:40;18.10;1.00
51619;DHT22;38518;53.164;5.430;2022-09-17T12:48:57;18.80;1.00
51619;DHT22;38518;53.164;5.430;2022-09-17T12:59:11;15.60;46.80
51619;DHT22;38518;53.164;5.430;2022-09-17T13:23:28;17.20;19.90
51619;DHT22;38518;53.164;5.430;2022-09-17T13:25:54;17.70;1.00
51619;DHT22;38518;53.164;5.430;2022-09-17T13:28:20;16.30;42.80
51619;DHT22;38518;53.164;5.430;2022-09-17T13:30:59;15.30;61.80
51619;DHT22;38518;53.164;5.430;2022-09-17T13:34:11;14.60;78.00
51619;DHT22;38518;53.164;5.430;2022-09-17T13:39:34;13.50;99.90
51619;DHT22;38518;53.164;5.430;2022-09-17T13:42:42;13.40;99.90
51619;DHT22;38518;53.164;5.430;2022-09-17T13:45:04;13.60;99.90
51619;DHT22;38518;53.164;5.430;2022-09-17T13:47:52;13.80;99.90
51619;DHT22;38518;53.164;5.430;2022-09-17T13:50:25;14.80;99.90
51619;DHT22;38518;53.164;5.430;2022-09-17T13:52:51;16.70;99.90
51619;DHT22;38518;53.164;5.430;2022-09-17T13:55:31;17.50;31.40
51619;DHT22;38518;53.164;5.430;2022-09-17T13:57:58;17.20;13.40
51619;DHT22;38518;53.164;5.430;2022-09-17T14:16:44;18.60;1.00
51619;DHT22;38518;53.164;5.430;2022-09-17T14:24:36;18.50;1.00
51619;DHT22;38518;53.164;5.430;2022-09-17T14:27:08;17.90;1.00
51619;DHT22;38518;53.164;5.430;2022-09-17T14:29:39;17.10;1.00
51619;DHT22;38518;53.164;5.430;2022-09-17T14:34:57;16.10;1.00
51619;DHT22;38518;53.164;5.430;2022-09-17T14:37:23;16.30;1.00
51619;DHT22;38518;53.164;5.430;2022-09-17T14:39:49;16.60;1.00
51619;DHT22;38518;53.164;5.430;2022-09-17T14:42:20;17.30;1.00
51619;DHT22;38518;53.164;5.430;2022-09-17T14:44:57;18.00;1.00
51619;DHT22;38518;53.164;5.430;2022-09-17T14:47:23;18.60;1.00
51619;DHT22;38518;53.164;5.430;2022-09-17T14:49:51;19.50;1.00
51619;DHT22;38518;53.164;5.430;2022-09-17T14:52:27;19.90;1.00
51619;DHT22;38518;53.164;5.430;2022-09-17T14:55:09;19.40;1.00
51619;DHT22;38518;53.164;5.430;2022-09-17T14:57:35;18.10;1.00
51619;DHT22;38518;53.164;5.430;2022-09-17T15:00:02;16.90;1.00
51619;DHT22;38518;53.164;5.430;2022-09-17T15:02:38;16.40;1.00
51619;DHT22;38518;53.164;5.430;2022-09-17T15:08:17;15.50;1.00
51619;DHT22;38518;53.164;5.430;2022-09-17T15:10:58;15.40;3.80
51619;DHT22;38518;53.164;5.430;2022-09-17T15:21:05;15.90;1.00
51619;DHT22;38518;53.164;5.430;2022-09-17T15:23:34;15.90;1.00
51619;DHT22;38518;53.164;5.430;2022-09-17T15:26:00;15.50;1.00
51619;DHT22;38518;53.164;5.430;2022-09-17T15:28:32;15.20;12.60
51619;DHT22;38518;53.164;5.430;2022-09-17T15:30:59;15.00;20.40
51619;DHT22;38518;53.164;5.430;2022-09-17T15:33:25;14.70;46.90
51619;DHT22;38518;53.164;5.430;2022-09-17T15:38:27;14.50;39.50
51619;DHT22;38518;53.164;5.430;2022-09-17T15:41:17;14.50;26.80
51619;DHT22;38518;53.164;5.430;2022-09-17T15:43:39;14.40;20.50
51619;DHT22;38518;53.164;5.430;2022-09-17T15:48:54;15.70;4.60
51619;DHT22;38518;53.164;5.430;2022-09-17T15:51:25;15.70;7.80
51619;DHT22;38518;53.164;5.430;2022-09-17T15:53:56;15.20;7.30
51619;DHT22;38518;53.164;5.430;2022-09-17T15:56:25;15.00;20.00
51619;DHT22;38518;53.164;5.430;2022-09-17T15:58:53;14.50;29.40
51619;DHT22;38518;53.164;5.430;2022-09-17T16:04:01;14.00;31.50
51619;DHT22;38518;53.164;5.430;2022-09-17T16:08:58;14.00;66.30
51619;DHT22;38518;53.164;5.430;2022-09-17T16:11:26;14.50;67.90
51619;DHT22;38518;53.164;5.430;2022-09-17T16:13:52;15.00;60.10
51619;DHT22;38518;53.164;5.430;2022-09-17T16:16:19;15.30;36.50
51619;DHT22;38518;53.164;5.430;2022-09-17T16:18:46;15.20;29.60
51619;DHT22;38518;53.164;5.430;2022-09-17T16:21:12;14.80;21.00
51619;DHT22;38518;53.164;5.430;2022-09-17T16:23:38;14.60;21.90
51619;DHT22;38518;53.164;5.430;2022-09-17T16:26:04;14.30;32.80
51619;DHT22;38518;53.164;5.430;2022-09-17T16:28:30;14.10;46.30
51619;DHT22;38518;53.164;5.430;2022-09-17T16:30:56;14.00;45.00
51619;DHT22;38518;53.164;5.430;2022-09-17T16:33:22;13.90;42.00
51619;DHT22;38518;53.164;5.430;2022-09-17T16:35:48;13.90;44.10
51619;DHT22;38518;53.164;5.430;2022-09-17T16:38:13;13.90;30.40
51619;DHT22;38518;53.164;5.430;2022-09-17T16:40:40;13.80;41.10
51619;DHT22;38518;53.164;5.430;2022-09-17T16:43:06;13.70;54.80
51619;DHT22;38518;53.164;5.430;2022-09-17T16:45:33;13.60;70.50
51619;DHT22;38518;53.164;5.430;2022-09-17T16:47:58;13.50;73.10
51619;DHT22;38518;53.164;5.430;2022-09-17T16:50:24;13.50;78.20
51619;DHT22;38518;53.164;5.430;2022-09-17T16:52:51;13.40;87.60
51619;DHT22;38518;53.164;5.430;2022-09-17T16:55:16;13.40;78.90
51619;DHT22;38518;53.164;5.430;2022-09-17T16:57:42;13.40;66.90
51619;DHT22;38518;53.164;5.430;2022-09-17T17:00:09;13.30;71.90
51619;DHT22;38518;53.164;5.430;2022-09-17T17:02:37;13.20;57.30
51619;DHT22;38518;53.164;5.430;2022-09-17T17:05:02;13.20;48.10
51619;DHT22;38518;53.164;5.430;2022-09-17T17:07:28;13.10;55.10
51619;DHT22;38518;53.164;5.430;2022-09-17T17:09:56;13.10;68.40
51619;DHT22;38518;53.164;5.430;2022-09-17T17:12:23;13.10;74.60
51619;DHT22;38518;53.164;5.430;2022-09-17T17:14:49;13.10;92.20
51619;DHT22;38518;53.164;5.430;2022-09-17T17:17:17;13.00;99.90
51619;DHT22;38518;53.164;5.430;2022-09-17T17:19:43;12.90;99.90
51619;DHT22;38518;53.164;5.430;2022-09-17T17:22:09;12.90;99.90
51619;DHT22;38518;53.164;5.430;2022-09-17T17:24:35;12.80;99.90
51619;DHT22;38518;53.164;5.430;2022-09-17T17:27:00;12.80;99.90
51619;DHT22;38518;53.164;5.430;2022-09-17T17:29:28;12.80;99.90
51619;DHT22;38518;53.164;5.430;2022-09-17T17:31:53;12.80;99.90
51619;DHT22;38518;53.164;5.430;2022-09-17T17:34:19;12.80;99.90
51619;DHT22;38518;53.164;5.430;2022-09-17T17:36:47;12.80;99.90
51619;DHT22;38518;53.164;5.430;2022-09-17T17:39:12;12.80;99.90
51619;DHT22;38518;53.164;5.430;2022-09-17T17:41:38;12.70;99.90
51619;DHT22;38518;53.164;5.430;2022-09-17T17:44:04;12.80;79.80
51619;DHT22;38518;53.164;5.430;2022-09-17T17:46:29;12.70;91.00
51619;DHT22;38518;53.164;5.430;2022-09-17T17:48:55;12.70;96.50
51619;DHT22;38518;53.164;5.430;2022-09-17T17:51:21;12.70;97.60
51619;DHT22;38518;53.164;5.430;2022-09-17T17:53:48;12.70;99.90
51619;DHT22;38518;53.164;5.430;2022-09-17T17:56:15;12.90;99.90
51619;DHT22;38518;53.164;5.430;2022-09-17T17:58:41;12.60;99.90
51619;DHT22;38518;53.164;5.430;2022-09-17T18:03:35;12.40;99.90
51619;DHT22;38518;53.164;5.430;2022-09-17T18:06:02;12.30;99.90
51619;DHT22;38518;53.164;5.430;2022-09-17T18:08:28;12.30;99.90
51619;DHT22;38518;53.164;5.430;2022-09-17T18:10:55;12.20;99.90
51619;DHT22;38518;53.164;5.430;2022-09-17T18:13:21;12.10;99.90
51619;DHT22;38518;53.164;5.430;2022-09-17T18:15:51;12.10;99.90
51619;DHT22;38518;53.164;5.430;2022-09-17T18:18:17;12.10;99.90
51619;DHT22;38518;53.164;5.430;2022-09-17T18:20:43;12.10;99.90
51619;DHT22;38518;53.164;5.430;2022-09-17T18:23:08;12.20;99.90
51619;DHT22;38518;53.164;5.430;2022-09-17T18:25:34;12.20;99.90
51619;DHT22;38518;53.164;5.430;2022-09-17T18:28:00;12.20;99.90
51619;DHT22;38518;53.164;5.430;2022-09-17T18:30:25;12.20;99.90
51619;DHT22;38518;53.164;5.430;2022-09-17T18:32:51;12.10;99.90
51619;DHT22;38518;53.164;5.430;2022-09-17T18:35:17;12.00;99.90
51619;DHT22;38518;53.164;5.430;2022-09-17T18:37:44;12.00;99.90
51619;DHT22;38518;53.164;5.430;2022-09-17T18:40:10;11.90;99.90
51619;DHT22;38518;53.164;5.430;2022-09-17T18:42:36;11.80;99.90
51619;DHT22;38518;53.164;5.430;2022-09-17T18:45:01;11.80;99.90
51619;DHT22;38518;53.164;5.430;2022-09-17T18:47:27;11.80;99.90
51619;DHT22;38518;53.164;5.430;2022-09-17T18:49:53;11.80;99.90
51619;DHT22;38518;53.164;5.430;2022-09-17T18:52:18;11.90;99.90
51619;DHT22;38518;53.164;5.430;2022-09-17T18:54:44;11.90;99.90
51619;DHT22;38518;53.164;5.430;2022-09-17T18:57:13;11.90;99.90
51619;DHT22;38518;53.164;5.430;2022-09-17T18:59:39;12.00;99.90
51619;DHT22;38518;53.164;5.430;2022-09-17T19:02:04;12.10;99.90
51619;DHT22;38518;53.164;5.430;2022-09-17T19:04:31;12.20;99.90
51619;DHT22;38518;53.164;5.430;2022-09-17T19:06:56;12.30;99.90
51619;DHT22;38518;53.164;5.430;2022-09-17T19:09:22;12.50;99.90
51619;DHT22;38518;53.164;5.430;2022-09-17T19:11:49;12.40;99.90
51619;DHT22;38518;53.164;5.430;2022-09-17T19:14:15;12.40;99.90
51619;DHT22;38518;53.164;5.430;2022-09-17T19:16:40;12.40;99.90
51619;DHT22;38518;53.164;5.430;2022-09-17T19:19:06;12.40;99.90
51619;DHT22;38518;53.164;5.430;2022-09-17T19:21:32;12.30;99.90
51619;DHT22;38518;53.164;5.430;2022-09-17T19:23:57;12.30;99.90
51619;DHT22;38518;53.164;5.430;2022-09-17T19:26:24;12.30;99.90
51619;DHT22;38518;53.164;5.430;2022-09-17T19:28:50;12.30;99.90
51619;DHT22;38518;53.164;5.430;2022-09-17T19:31:16;12.60;99.90
51619;DHT22;38518;53.164;5.430;2022-09-17T19:33:42;12.30;99.90
51619;DHT22;38518;53.164;5.430;2022-09-17T19:36:10;12.30;99.90
51619;DHT22;38518;53.164;5.430;2022-09-17T19:38:36;12.30;99.90
51619;DHT22;38518;53.164;5.430;2022-09-17T19:41:08;12.40;99.90
51619;DHT22;38518;53.164;5.430;2022-09-17T19:43:35;12.40;99.90
51619;DHT22;38518;53.164;5.430;2022-09-17T19:46:05;12.40;99.90
51619;DHT22;38518;53.164;5.430;2022-09-17T19:48:31;12.50;99.90
51619;DHT22;38518;53.164;5.430;2022-09-17T19:50:57;12.50;99.90
51619;DHT22;38518;53.164;5.430;2022-09-17T19:53:23;12.40;99.90
51619;DHT22;38518;53.164;5.430;2022-09-17T19:55:49;12.50;99.90
51619;DHT22;38518;53.164;5.430;2022-09-17T19:58:14;12.20;99.90
51619;DHT22;38518;53.164;5.430;2022-09-17T20:00:40;12.60;99.90
51619;DHT22;38518;53.164;5.430;2022-09-17T20:03:06;12.00;99.90
51619;DHT22;38518;53.164;5.430;2022-09-17T20:05:33;11.80;99.90
51619;DHT22;38518;53.164;5.430;2022-09-17T20:07:59;11.80;99.90
51619;DHT22;38518;53.164;5.430;2022-09-17T20:10:25;11.80;99.90
51619;DHT22;38518;53.164;5.430;2022-09-17T20:12:50;11.90;99.90
51619;DHT22;38518;53.164;5.430;2022-09-17T20:15:16;11.90;99.90
51619;DHT22;38518;53.164;5.430;2022-09-17T20:17:42;11.90;99.90
51619;DHT22;38518;53.164;5.430;2022-09-17T20:20:08;12.00;99.90
51619;DHT22;38518;53.164;5.430;2022-09-17T20:22:34;12.10;99.90
51619;DHT22;38518;53.164;5.430;2022-09-17T20:24:59;12.10;99.90
51619;DHT22;38518;53.164;5.430;2022-09-17T20:27:25;12.10;99.90
51619;DHT22;38518;53.164;5.430;2022-09-17T20:29:50;12.10;99.90
51619;DHT22;38518;53.164;5.430;2022-09-17T20:32:16;12.10;99.90
51619;DHT22;38518;53.164;5.430;2022-09-17T20:34:42;12.00;99.90
51619;DHT22;38518;53.164;5.430;2022-09-17T20:37:07;12.00;99.90
51619;DHT22;38518;53.164;5.430;2022-09-17T20:39:33;12.00;99.90
51619;DHT22;38518;53.164;5.430;2022-09-17T20:41:59;12.00;99.90
51619;DHT22;38518;53.164;5.430;2022-09-17T20:44:24;12.00;99.90